sensor_id;sensor_type;location;lat;lon;timestamp;temperature;humidity
55369;DHT22;41247;49.736;8.752;2023-08-31T00:00:22;11.70;99.90
55369;DHT22;41247;49.736;8.752;2023-08-31T00:04:03;11.70;99.90
55369;DHT22;41247;49.736;8.752;2023-08-31T00:07:44;11.70;99.90
55369;DHT22;41247;49.736;8.752;2023-08-31T00:11:24;11.80;99.90
55369;DHT22;41247;49.736;8.752;2023-08-31T00:15:05;11.80;99.90
55369;DHT22;41247;49.736;8.752;2023-08-31T00:18:46;11.80;99.90
55369;DHT22;41247;49.736;8.752;2023-08-31T00:22:27;11.70;99.90
55369;DHT22;41247;49.736;8.752;2023-08-31T00:26:08;11.70;99.90
55369;DHT22;41247;49.736;8.752;2023-08-31T00:29:55;11.70;99.90
55369;DHT22;41247;49.736;8.752;2023-08-31T00:33:38;11.60;99.90
55369;DHT22;41247;49.736;8.752;2023-08-31T00:37:18;11.60;99.90
55369;DHT22;41247;49.736;8.752;2023-08-31T00:41:00;11.60;99.90
55369;DHT22;41247;49.736;8.752;2023-08-31T00:44:40;11.70;99.90
55369;DHT22;41247;49.736;8.752;2023-08-31T00:48:21;11.70;99.90
55369;DHT22;41247;49.736;8.752;2023-08-31T00:52:02;11.70;99.90
55369;DHT22;41247;49.736;8.752;2023-08-31T00:55:44;11.70;99.90
55369;DHT22;41247;49.736;8.752;2023-08-31T00:59:25;11.70;99.90
55369;DHT22;41247;49.736;8.752;2023-08-31T01:03:12;11.70;99.90
55369;DHT22;41247;49.736;8.752;2023-08-31T01:11:13;11.70;99.90
55369;DHT22;41247;49.736;8.752;2023-08-31T01:15:03;11.70;99.90
55369;DHT22;41247;49.736;8.752;2023-08-31T01:18:46;11.70;99.90
55369;DHT22;41247;49.736;8.752;2023-08-31T01:22:29;11.70;99.90
55369;DHT22;41247;49.736;8.752;2023-08-31T01:26:12;11.60;99.90
55369;DHT22;41247;49.736;8.752;2023-08-31T01:29:54;11.70;99.90
55369;DHT22;41247;49.736;8.752;2023-08-31T01:33:35;11.70;99.90
55369;DHT22;41247;49.736;8.752;2023-08-31T01:37:20;11.70;99.90
55369;DHT22;41247;49.736;8.752;2023-08-31T01:41:10;11.60;99.90
55369;DHT22;41247;49.736;8.752;2023-08-31T01:44:55;11.60;99.90
55369;DHT22;41247;49.736;8.752;2023-08-31T01:48:40;11.70;99.90
55369;DHT22;41247;49.736;8.752;2023-08-31T01:52:20;11.70;99.90
55369;DHT22;41247;49.736;8.752;2023-08-31T01:56:02;11.70;99.90
55369;DHT22;41247;49.736;8.752;2023-08-31T01:59:42;11.70;99.90
55369;DHT22;41247;49.736;8.752;2023-08-31T02:03:23;11.70;99.90
55369;DHT22;41247;49.736;8.752;2023-08-31T02:07:04;11.70;99.90
55369;DHT22;41247;49.736;8.752;2023-08-31T02:10:46;11.70;99.90
55369;DHT22;41247;49.736;8.752;2023-08-31T02:14:29;11.70;99.90
55369;DHT22;41247;49.736;8.752;2023-08-31T02:18:10;11.70;99.90
55369;DHT22;41247;49.736;8.752;2023-08-31T02:21:50;11.70;99.90
55369;DHT22;41247;49.736;8.752;2023-08-31T02:25:32;11.70;99.90
55369;DHT22;41247;49.736;8.752;2023-08-31T02:29:12;11.70;99.90
55369;DHT22;41247;49.736;8.752;2023-08-31T02:32:53;11.70;99.90
55369;DHT22;41247;49.736;8.752;2023-08-31T02:36:33;11.70;99.90
55369;DHT22;41247;49.736;8.752;2023-08-31T02:40:14;11.70;99.90
55369;DHT22;41247;49.736;8.752;2023-08-31T02:43:55;11.70;99.90
55369;DHT22;41247;49.736;8.752;2023-08-31T02:47:36;11.80;99.90
55369;DHT22;41247;49.736;8.752;2023-08-31T02:51:16;11.70;99.90
55369;DHT22;41247;49.736;8.752;2023-08-31T02:54:57;11.80;99.90
55369;DHT22;41247;49.736;8.752;2023-08-31T02:58:37;11.80;99.90
55369;DHT22;41247;49.736;8.752;2023-08-31T03:02:18;11.80;99.90
55369;DHT22;41247;49.736;8.752;2023-08-31T03:05:58;11.80;99.90
55369;DHT22;41247;49.736;8.752;2023-08-31T03:09:39;11.80;99.90
55369;DHT22;41247;49.736;8.752;2023-08-31T03:13:20;11.80;99.90
55369;DHT22;41247;49.736;8.752;2023-08-31T03:17:01;11.80;99.90
55369;DHT22;41247;49.736;8.752;2023-08-31T03:20:41;11.80;99.90
55369;DHT22;41247;49.736;8.752;2023-08-31T03:24:22;11.80;99.90
55369;DHT22;41247;49.736;8.752;2023-08-31T03:28:03;11.80;99.90
55369;DHT22;41247;49.736;8.752;2023-08-31T03:31:43;11.80;99.90
55369;DHT22;41247;49.736;8.752;2023-08-31T03:35:24;11.80;99.90
55369;DHT22;41247;49.736;8.752;2023-08-31T03:39:05;11.80;99.90
55369;DHT22;41247;49.736;8.752;2023-08-31T03:42:45;11.80;99.90
55369;DHT22;41247;49.736;8.752;2023-08-31T03:46:26;11.70;99.90
55369;DHT22;41247;49.736;8.752;2023-08-31T03:50:07;11.70;99.90
55369;DHT22;41247;49.736;8.752;2023-08-31T03:53:50;11.70;99.90
55369;DHT22;41247;49.736;8.752;2023-08-31T03:57:30;11.60;99.90
55369;DHT22;41247;49.736;8.752;2023-08-31T04:01:11;11.60;99.90
55369;DHT22;41247;49.736;8.752;2023-08-31T04:04:52;11.60;99.90
55369;DHT22;41247;49.736;8.752;2023-08-31T04:08:32;11.60;99.90
55369;DHT22;41247;49.736;8.752;2023-08-31T04:12:13;11.60;99.90
55369;DHT22;41247;49.736;8.752;2023-08-31T04:15:53;11.50;99.90
55369;DHT22;41247;49.736;8.752;2023-08-31T04:19:34;11.50;99.90
55369;DHT22;41247;49.736;8.752;2023-08-31T04:23:14;11.40;99.90
55369;DHT22;41247;49.736;8.752;2023-08-31T04:26:55;11.40;99.90
55369;DHT22;41247;49.736;8.752;2023-08-31T04:30:36;11.30;99.90
55369;DHT22;41247;49.736;8.752;2023-08-31T04:34:16;11.30;99.90
55369;DHT22;41247;49.736;8.752;2023-08-31T04:37:57;11.20;99.90
55369;DHT22;41247;49.736;8.752;2023-08-31T04:41:38;11.20;99.90
55369;DHT22;41247;49.736;8.752;2023-08-31T04:45:19;11.10;99.90
55369;DHT22;41247;49.736;8.752;2023-08-31T04:48:59;11.10;99.90
55369;DHT22;41247;49.736;8.752;2023-08-31T04:52:40;11.00;99.90
55369;DHT22;41247;49.736;8.752;2023-08-31T04:56:20;11.00;99.90
55369;DHT22;41247;49.736;8.752;2023-08-31T05:00:22;11.00;99.90
55369;DHT22;41247;49.736;8.752;2023-08-31T05:04:57;10.90;99.90
55369;DHT22;41247;49.736;8.752;2023-08-31T05:10:11;10.90;99.90
55369;DHT22;41247;49.736;8.752;2023-08-31T05:14:21;10.90;99.90
55369;DHT22;41247;49.736;8.752;2023-08-31T05:18:01;10.90;99.90
55369;DHT22;41247;49.736;8.752;2023-08-31T05:21:42;10.80;99.90
55369;DHT22;41247;49.736;8.752;2023-08-31T05:30:15;10.80;99.90
55369;DHT22;41247;49.736;8.752;2023-08-31T05:34:20;10.80;99.90
55369;DHT22;41247;49.736;8.752;2023-08-31T05:38:22;10.80;99.90
55369;DHT22;41247;49.736;8.752;2023-08-31T05:42:02;10.80;99.90
55369;DHT22;41247;49.736;8.752;2023-08-31T05:45:45;10.80;99.90
55369;DHT22;41247;49.736;8.752;2023-08-31T05:49:46;10.80;99.90
55369;DHT22;41247;49.736;8.752;2023-08-31T05:53:29;10.80;99.90
55369;DHT22;41247;49.736;8.752;2023-08-31T05:57:27;10.90;99.90
55369;DHT22;41247;49.736;8.752;2023-08-31T06:01:36;10.90;99.90
55369;DHT22;41247;49.736;8.752;2023-08-31T06:05:56;11.00;99.90
55369;DHT22;41247;49.736;8.752;2023-08-31T06:09:44;11.00;99.90
55369;DHT22;41247;49.736;8.752;2023-08-31T06:13:34;11.00;99.90
55369;DHT22;41247;49.736;8.752;2023-08-31T06:17:28;11.10;99.90
55369;DHT22;41247;49.736;8.752;2023-08-31T06:21:24;11.20;99.90
55369;DHT22;41247;49.736;8.752;2023-08-31T06:25:09;11.30;99.90
55369;DHT22;41247;49.736;8.752;2023-08-31T06:28:58;11.60;99.90
55369;DHT22;41247;49.736;8.752;2023-08-31T06:33:08;11.80;99.90
55369;DHT22;41247;49.736;8.752;2023-08-31T06:36:55;11.90;99.90
55369;DHT22;41247;49.736;8.752;2023-08-31T06:41:01;12.00;99.90
55369;DHT22;41247;49.736;8.752;2023-08-31T06:45:22;12.10;99.90
55369;DHT22;41247;49.736;8.752;2023-08-31T06:49:07;12.10;99.90
55369;DHT22;41247;49.736;8.752;2023-08-31T06:52:48;12.10;99.90
55369;DHT22;41247;49.736;8.752;2023-08-31T06:56:28;12.10;99.90
55369;DHT22;41247;49.736;8.752;2023-08-31T07:00:12;12.10;99.90
55369;DHT22;41247;49.736;8.752;2023-08-31T07:03:52;12.20;99.90
55369;DHT22;41247;49.736;8.752;2023-08-31T07:07:33;12.20;99.90
55369;DHT22;41247;49.736;8.752;2023-08-31T07:11:14;12.20;99.90
55369;DHT22;41247;49.736;8.752;2023-08-31T07:14:55;12.20;99.90
55369;DHT22;41247;49.736;8.752;2023-08-31T07:18:36;12.30;99.90
55369;DHT22;41247;49.736;8.752;2023-08-31T07:22:17;12.30;99.90
55369;DHT22;41247;49.736;8.752;2023-08-31T07:25:57;12.30;99.90
55369;DHT22;41247;49.736;8.752;2023-08-31T07:29:38;12.30;99.90
55369;DHT22;41247;49.736;8.752;2023-08-31T07:33:18;12.50;99.90
55369;DHT22;41247;49.736;8.752;2023-08-31T07:36:59;12.90;99.90
55369;DHT22;41247;49.736;8.752;2023-08-31T07:40:40;13.30;99.90
55369;DHT22;41247;49.736;8.752;2023-08-31T07:44:21;13.70;99.90
55369;DHT22;41247;49.736;8.752;2023-08-31T07:48:01;13.80;99.90
55369;DHT22;41247;49.736;8.752;2023-08-31T07:51:42;13.70;99.90
55369;DHT22;41247;49.736;8.752;2023-08-31T07:55:22;13.70;99.90
55369;DHT22;41247;49.736;8.752;2023-08-31T07:59:03;13.50;99.90
55369;DHT22;41247;49.736;8.752;2023-08-31T08:02:45;13.40;99.90
55369;DHT22;41247;49.736;8.752;2023-08-31T08:06:25;13.40;99.90
55369;DHT22;41247;49.736;8.752;2023-08-31T08:10:06;13.60;99.90
55369;DHT22;41247;49.736;8.752;2023-08-31T08:13:48;13.50;99.90
55369;DHT22;41247;49.736;8.752;2023-08-31T08:17:28;13.50;99.90
55369;DHT22;41247;49.736;8.752;2023-08-31T08:21:09;13.70;99.90
55369;DHT22;41247;49.736;8.752;2023-08-31T08:24:50;13.90;99.90
55369;DHT22;41247;49.736;8.752;2023-08-31T08:28:30;14.00;99.90
55369;DHT22;41247;49.736;8.752;2023-08-31T08:32:11;14.00;99.90
55369;DHT22;41247;49.736;8.752;2023-08-31T08:35:56;14.10;99.90
55369;DHT22;41247;49.736;8.752;2023-08-31T08:39:37;14.20;99.90
55369;DHT22;41247;49.736;8.752;2023-08-31T08:43:24;14.60;99.90
55369;DHT22;41247;49.736;8.752;2023-08-31T08:47:06;14.80;99.90
55369;DHT22;41247;49.736;8.752;2023-08-31T08:50:48;15.00;99.90
55369;DHT22;41247;49.736;8.752;2023-08-31T08:54:28;15.00;99.90
55369;DHT22;41247;49.736;8.752;2023-08-31T08:58:09;15.30;99.90
55369;DHT22;41247;49.736;8.752;2023-08-31T09:01:50;15.20;99.90
55369;DHT22;41247;49.736;8.752;2023-08-31T09:05:32;15.00;99.90
55369;DHT22;41247;49.736;8.752;2023-08-31T09:09:13;15.00;99.90
55369;DHT22;41247;49.736;8.752;2023-08-31T09:12:53;15.00;99.90
55369;DHT22;41247;49.736;8.752;2023-08-31T09:16:34;15.00;99.90
55369;DHT22;41247;49.736;8.752;2023-08-31T09:20:14;15.00;99.90
55369;DHT22;41247;49.736;8.752;2023-08-31T09:23:56;15.00;99.90
55369;DHT22;41247;49.736;8.752;2023-08-31T09:27:38;14.90;99.90
55369;DHT22;41247;49.736;8.752;2023-08-31T09:31:18;15.20;99.90
55369;DHT22;41247;49.736;8.752;2023-08-31T09:34:59;15.30;99.90
55369;DHT22;41247;49.736;8.752;2023-08-31T09:38:43;15.20;99.90
55369;DHT22;41247;49.736;8.752;2023-08-31T09:42:36;15.30;99.90
55369;DHT22;41247;49.736;8.752;2023-08-31T09:46:17;15.40;99.90
55369;DHT22;41247;49.736;8.752;2023-08-31T09:49:58;15.70;99.90
55369;DHT22;41247;49.736;8.752;2023-08-31T09:53:41;15.90;99.90
55369;DHT22;41247;49.736;8.752;2023-08-31T09:57:23;15.80;99.90
55369;DHT22;41247;49.736;8.752;2023-08-31T10:01:05;15.90;99.90
55369;DHT22;41247;49.736;8.752;2023-08-31T10:04:46;16.10;99.90
55369;DHT22;41247;49.736;8.752;2023-08-31T10:08:27;15.90;99.90
55369;DHT22;41247;49.736;8.752;2023-08-31T10:12:08;15.90;99.90
55369;DHT22;41247;49.736;8.752;2023-08-31T10:15:49;15.90;99.90
55369;DHT22;41247;49.736;8.752;2023-08-31T10:19:30;15.90;99.90
55369;DHT22;41247;49.736;8.752;2023-08-31T10:23:11;16.40;99.90
55369;DHT22;41247;49.736;8.752;2023-08-31T10:26:52;16.70;99.90
55369;DHT22;41247;49.736;8.752;2023-08-31T10:30:32;17.20;99.90
55369;DHT22;41247;49.736;8.752;2023-08-31T10:34:13;17.70;99.90
55369;DHT22;41247;49.736;8.752;2023-08-31T10:38:17;17.80;99.90
55369;DHT22;41247;49.736;8.752;2023-08-31T10:42:04;18.00;99.90
55369;DHT22;41247;49.736;8.752;2023-08-31T10:45:45;17.70;99.90
55369;DHT22;41247;49.736;8.752;2023-08-31T10:49:26;17.30;99.90
55369;DHT22;41247;49.736;8.752;2023-08-31T10:53:09;16.90;99.90
55369;DHT22;41247;49.736;8.752;2023-08-31T11:00:52;17.00;99.90
55369;DHT22;41247;49.736;8.752;2023-08-31T11:04:53;16.90;99.90
55369;DHT22;41247;49.736;8.752;2023-08-31T11:08:34;17.00;99.90
55369;DHT22;41247;49.736;8.752;2023-08-31T11:12:15;17.60;99.90
55369;DHT22;41247;49.736;8.752;2023-08-31T11:15:56;17.70;99.90
55369;DHT22;41247;49.736;8.752;2023-08-31T11:19:37;17.60;99.90
55369;DHT22;41247;49.736;8.752;2023-08-31T11:23:18;17.30;99.90
55369;DHT22;41247;49.736;8.752;2023-08-31T11:26:59;17.20;99.90
55369;DHT22;41247;49.736;8.752;2023-08-31T11:30:41;17.30;99.90
55369;DHT22;41247;49.736;8.752;2023-08-31T11:34:21;17.50;99.90
55369;DHT22;41247;49.736;8.752;2023-08-31T11:38:02;17.40;99.90
55369;DHT22;41247;49.736;8.752;2023-08-31T11:41:43;17.30;99.90
55369;DHT22;41247;49.736;8.752;2023-08-31T11:45:24;17.20;99.90
55369;DHT22;41247;49.736;8.752;2023-08-31T11:49:06;17.30;99.90
55369;DHT22;41247;49.736;8.752;2023-08-31T11:52:47;18.00;99.90
55369;DHT22;41247;49.736;8.752;2023-08-31T11:56:45;18.10;99.90
55369;DHT22;41247;49.736;8.752;2023-08-31T12:00:26;18.70;99.90
55369;DHT22;41247;49.736;8.752;2023-08-31T12:04:11;19.20;99.90
55369;DHT22;41247;49.736;8.752;2023-08-31T12:07:56;19.40;99.90
55369;DHT22;41247;49.736;8.752;2023-08-31T12:11:37;19.40;99.90
55369;DHT22;41247;49.736;8.752;2023-08-31T12:15:17;19.10;99.90
55369;DHT22;41247;49.736;8.752;2023-08-31T12:19:04;18.70;99.90
55369;DHT22;41247;49.736;8.752;2023-08-31T12:22:45;18.30;99.90
55369;DHT22;41247;49.736;8.752;2023-08-31T12:26:26;18.20;99.90
55369;DHT22;41247;49.736;8.752;2023-08-31T12:30:07;18.00;99.90
55369;DHT22;41247;49.736;8.752;2023-08-31T12:33:58;18.00;99.90
55369;DHT22;41247;49.736;8.752;2023-08-31T12:37:40;18.80;99.90
55369;DHT22;41247;49.736;8.752;2023-08-31T12:41:20;18.90;99.90
55369;DHT22;41247;49.736;8.752;2023-08-31T12:45:01;18.50;99.90
55369;DHT22;41247;49.736;8.752;2023-08-31T12:48:42;18.20;99.90
55369;DHT22;41247;49.736;8.752;2023-08-31T12:52:23;18.00;99.90
55369;DHT22;41247;49.736;8.752;2023-08-31T12:56:03;18.00;99.90
55369;DHT22;41247;49.736;8.752;2023-08-31T12:59:44;18.20;99.90
55369;DHT22;41247;49.736;8.752;2023-08-31T13:03:25;18.60;99.90
55369;DHT22;41247;49.736;8.752;2023-08-31T13:07:06;19.30;99.90
55369;DHT22;41247;49.736;8.752;2023-08-31T13:10:54;20.00;99.90
55369;DHT22;41247;49.736;8.752;2023-08-31T13:14:34;19.80;99.90
55369;DHT22;41247;49.736;8.752;2023-08-31T13:18:15;19.40;99.90
55369;DHT22;41247;49.736;8.752;2023-08-31T13:21:56;19.20;99.90
55369;DHT22;41247;49.736;8.752;2023-08-31T13:25:36;19.00;99.90
55369;DHT22;41247;49.736;8.752;2023-08-31T13:29:17;18.90;99.90
55369;DHT22;41247;49.736;8.752;2023-08-31T13:32:58;18.80;99.90
55369;DHT22;41247;49.736;8.752;2023-08-31T13:36:38;18.70;99.90
55369;DHT22;41247;49.736;8.752;2023-08-31T13:40:19;18.50;99.90
55369;DHT22;41247;49.736;8.752;2023-08-31T13:44:00;18.50;99.90
55369;DHT22;41247;49.736;8.752;2023-08-31T13:47:40;18.50;99.90
55369;DHT22;41247;49.736;8.752;2023-08-31T13:51:21;18.50;99.90
55369;DHT22;41247;49.736;8.752;2023-08-31T13:55:02;18.50;99.90
55369;DHT22;41247;49.736;8.752;2023-08-31T13:58:42;18.40;99.90
55369;DHT22;41247;49.736;8.752;2023-08-31T14:02:23;18.70;99.90
55369;DHT22;41247;49.736;8.752;2023-08-31T14:06:04;19.70;99.90
55369;DHT22;41247;49.736;8.752;2023-08-31T14:09:44;20.50;99.90
55369;DHT22;41247;49.736;8.752;2023-08-31T14:13:25;20.50;99.90
55369;DHT22;41247;49.736;8.752;2023-08-31T14:17:06;19.90;99.90
55369;DHT22;41247;49.736;8.752;2023-08-31T14:20:46;19.50;99.90
55369;DHT22;41247;49.736;8.752;2023-08-31T14:24:27;19.40;99.90
55369;DHT22;41247;49.736;8.752;2023-08-31T14:28:07;19.50;99.90
55369;DHT22;41247;49.736;8.752;2023-08-31T14:31:48;20.00;99.90
55369;DHT22;41247;49.736;8.752;2023-08-31T14:35:36;20.40;99.90
55369;DHT22;41247;49.736;8.752;2023-08-31T14:39:19;19.90;99.90
55369;DHT22;41247;49.736;8.752;2023-08-31T14:43:00;20.10;99.90
55369;DHT22;41247;49.736;8.752;2023-08-31T14:46:41;20.30;99.90
55369;DHT22;41247;49.736;8.752;2023-08-31T14:50:22;19.70;99.90
55369;DHT22;41247;49.736;8.752;2023-08-31T14:54:03;19.30;99.90
55369;DHT22;41247;49.736;8.752;2023-08-31T14:57:43;18.80;99.90
55369;DHT22;41247;49.736;8.752;2023-08-31T15:01:24;18.50;99.90
55369;DHT22;41247;49.736;8.752;2023-08-31T15:05:05;18.30;99.90
55369;DHT22;41247;49.736;8.752;2023-08-31T15:08:46;18.20;99.90
55369;DHT22;41247;49.736;8.752;2023-08-31T15:12:27;18.10;99.90
55369;DHT22;41247;49.736;8.752;2023-08-31T15:16:07;18.10;99.90
55369;DHT22;41247;49.736;8.752;2023-08-31T15:19:51;18.00;99.90
55369;DHT22;41247;49.736;8.752;2023-08-31T15:23:32;18.00;99.90
55369;DHT22;41247;49.736;8.752;2023-08-31T15:27:12;18.00;99.90
55369;DHT22;41247;49.736;8.752;2023-08-31T15:30:53;17.90;99.90
55369;DHT22;41247;49.736;8.752;2023-08-31T15:34:33;17.90;99.90
55369;DHT22;41247;49.736;8.752;2023-08-31T15:38:14;17.90;99.90
55369;DHT22;41247;49.736;8.752;2023-08-31T15:41:55;17.90;99.90
55369;DHT22;41247;49.736;8.752;2023-08-31T15:45:36;17.80;99.90
55369;DHT22;41247;49.736;8.752;2023-08-31T15:49:16;17.80;99.90
55369;DHT22;41247;49.736;8.752;2023-08-31T15:52:57;17.70;99.90
55369;DHT22;41247;49.736;8.752;2023-08-31T15:56:38;17.70;99.90
55369;DHT22;41247;49.736;8.752;2023-08-31T16:00:19;17.70;99.90
55369;DHT22;41247;49.736;8.752;2023-08-31T16:04:00;17.90;99.90
55369;DHT22;41247;49.736;8.752;2023-08-31T16:07:41;18.00;99.90
55369;DHT22;41247;49.736;8.752;2023-08-31T16:11:21;18.10;99.90
55369;DHT22;41247;49.736;8.752;2023-08-31T16:15:02;18.20;99.90
55369;DHT22;41247;49.736;8.752;2023-08-31T16:18:44;18.20;99.90
55369;DHT22;41247;49.736;8.752;2023-08-31T16:22:24;18.20;99.90
55369;DHT22;41247;49.736;8.752;2023-08-31T16:26:05;18.10;99.90
55369;DHT22;41247;49.736;8.752;2023-08-31T16:29:47;18.00;99.90
55369;DHT22;41247;49.736;8.752;2023-08-31T16:33:27;17.80;99.90
55369;DHT22;41247;49.736;8.752;2023-08-31T16:37:08;17.70;99.90
55369;DHT22;41247;49.736;8.752;2023-08-31T16:40:48;17.60;99.90
55369;DHT22;41247;49.736;8.752;2023-08-31T16:44:29;17.40;99.90
55369;DHT22;41247;49.736;8.752;2023-08-31T16:48:10;17.30;99.90
55369;DHT22;41247;49.736;8.752;2023-08-31T16:51:50;17.20;99.90
55369;DHT22;41247;49.736;8.752;2023-08-31T16:55:31;17.10;99.90
55369;DHT22;41247;49.736;8.752;2023-08-31T16:59:12;17.00;99.90
55369;DHT22;41247;49.736;8.752;2023-08-31T17:02:53;16.90;99.90
55369;DHT22;41247;49.736;8.752;2023-08-31T17:06:33;16.80;99.90
55369;DHT22;41247;49.736;8.752;2023-08-31T17:10:14;16.80;99.90
55369;DHT22;41247;49.736;8.752;2023-08-31T17:13:54;16.70;99.90
55369;DHT22;41247;49.736;8.752;2023-08-31T17:17:35;16.70;99.90
55369;DHT22;41247;49.736;8.752;2023-08-31T17:21:16;16.60;99.90
55369;DHT22;41247;49.736;8.752;2023-08-31T17:24:56;16.60;99.90
55369;DHT22;41247;49.736;8.752;2023-08-31T17:28:37;16.50;99.90
55369;DHT22;41247;49.736;8.752;2023-08-31T17:32:17;16.40;99.90
55369;DHT22;41247;49.736;8.752;2023-08-31T17:35:58;16.40;99.90
55369;DHT22;41247;49.736;8.752;2023-08-31T17:39:39;16.30;99.90
55369;DHT22;41247;49.736;8.752;2023-08-31T17:43:19;16.20;99.90
55369;DHT22;41247;49.736;8.752;2023-08-31T17:47:00;16.10;99.90
55369;DHT22;41247;49.736;8.752;2023-08-31T17:50:41;16.10;99.90
55369;DHT22;41247;49.736;8.752;2023-08-31T17:54:21;16.00;99.90
55369;DHT22;41247;49.736;8.752;2023-08-31T17:58:02;16.10;99.90
55369;DHT22;41247;49.736;8.752;2023-08-31T18:01:43;16.00;99.90
55369;DHT22;41247;49.736;8.752;2023-08-31T18:05:25;16.00;99.90
55369;DHT22;41247;49.736;8.752;2023-08-31T18:09:05;15.90;99.90
55369;DHT22;41247;49.736;8.752;2023-08-31T18:12:46;15.80;99.90
55369;DHT22;41247;49.736;8.752;2023-08-31T18:16:27;15.70;99.90
55369;DHT22;41247;49.736;8.752;2023-08-31T18:20:08;15.60;99.90
55369;DHT22;41247;49.736;8.752;2023-08-31T18:23:49;15.50;99.90
55369;DHT22;41247;49.736;8.752;2023-08-31T18:27:30;15.30;99.90
55369;DHT22;41247;49.736;8.752;2023-08-31T18:31:10;15.20;99.90
55369;DHT22;41247;49.736;8.752;2023-08-31T18:34:51;15.10;99.90
55369;DHT22;41247;49.736;8.752;2023-08-31T18:38:31;15.00;99.90
55369;DHT22;41247;49.736;8.752;2023-08-31T18:42:12;14.90;99.90
55369;DHT22;41247;49.736;8.752;2023-08-31T18:45:53;14.90;99.90
55369;DHT22;41247;49.736;8.752;2023-08-31T18:49:33;14.80;99.90
55369;DHT22;41247;49.736;8.752;2023-08-31T18:53:14;14.70;99.90
55369;DHT22;41247;49.736;8.752;2023-08-31T18:56:55;14.70;99.90
55369;DHT22;41247;49.736;8.752;2023-08-31T19:00:35;14.60;99.90
55369;DHT22;41247;49.736;8.752;2023-08-31T19:04:16;14.60;99.90
55369;DHT22;41247;49.736;8.752;2023-08-31T19:07:57;14.50;99.90
55369;DHT22;41247;49.736;8.752;2023-08-31T19:11:37;14.50;99.90
55369;DHT22;41247;49.736;8.752;2023-08-31T19:15:18;14.50;99.90
55369;DHT22;41247;49.736;8.752;2023-08-31T19:18:59;14.40;99.90
55369;DHT22;41247;49.736;8.752;2023-08-31T19:22:40;14.40;99.90
55369;DHT22;41247;49.736;8.752;2023-08-31T19:26:22;14.40;99.90
55369;DHT22;41247;49.736;8.752;2023-08-31T19:30:03;14.40;99.90
55369;DHT22;41247;49.736;8.752;2023-08-31T19:33:45;14.30;99.90
55369;DHT22;41247;49.736;8.752;2023-08-31T19:37:29;14.30;99.90
55369;DHT22;41247;49.736;8.752;2023-08-31T19:41:11;14.20;99.90
55369;DHT22;41247;49.736;8.752;2023-08-31T19:44:51;14.20;99.90
55369;DHT22;41247;49.736;8.752;2023-08-31T19:48:32;14.10;99.90
55369;DHT22;41247;49.736;8.752;2023-08-31T19:52:12;14.10;99.90
55369;DHT22;41247;49.736;8.752;2023-08-31T19:55:53;14.10;99.90
55369;DHT22;41247;49.736;8.752;2023-08-31T19:59:33;14.00;99.90
55369;DHT22;41247;49.736;8.752;2023-08-31T20:03:14;14.00;99.90
55369;DHT22;41247;49.736;8.752;2023-08-31T20:06:57;14.00;99.90
55369;DHT22;41247;49.736;8.752;2023-08-31T20:10:38;13.90;99.90
55369;DHT22;41247;49.736;8.752;2023-08-31T20:14:18;13.90;99.90
55369;DHT22;41247;49.736;8.752;2023-08-31T20:17:59;13.90;99.90
55369;DHT22;41247;49.736;8.752;2023-08-31T20:21:39;13.90;99.90
55369;DHT22;41247;49.736;8.752;2023-08-31T20:25:20;13.80;99.90
55369;DHT22;41247;49.736;8.752;2023-08-31T20:29:08;13.80;99.90
55369;DHT22;41247;49.736;8.752;2023-08-31T20:32:48;13.70;99.90
55369;DHT22;41247;49.736;8.752;2023-08-31T20:36:29;13.70;99.90
55369;DHT22;41247;49.736;8.752;2023-08-31T20:40:10;13.70;99.90
55369;DHT22;41247;49.736;8.752;2023-08-31T20:43:51;13.60;99.90
55369;DHT22;41247;49.736;8.752;2023-08-31T20:47:32;13.60;99.90
55369;DHT22;41247;49.736;8.752;2023-08-31T20:51:12;13.60;99.90
55369;DHT22;41247;49.736;8.752;2023-08-31T20:54:53;13.50;99.90
55369;DHT22;41247;49.736;8.752;2023-08-31T20:58:34;13.50;99.90
55369;DHT22;41247;49.736;8.752;2023-08-31T21:02:15;13.50;99.90
55369;DHT22;41247;49.736;8.752;2023-08-31T21:05:56;13.50;99.90
55369;DHT22;41247;49.736;8.752;2023-08-31T21:09:37;13.50;99.90
55369;DHT22;41247;49.736;8.752;2023-08-31T21:13:17;13.50;99.90
55369;DHT22;41247;49.736;8.752;2023-08-31T21:16:58;13.40;99.90
55369;DHT22;41247;49.736;8.752;2023-08-31T21:20:38;13.40;99.90
55369;DHT22;41247;49.736;8.752;2023-08-31T21:24:19;13.30;99.90
55369;DHT22;41247;49.736;8.752;2023-08-31T21:27:59;13.30;99.90
55369;DHT22;41247;49.736;8.752;2023-08-31T21:31:40;13.30;99.90
55369;DHT22;41247;49.736;8.752;2023-08-31T21:35:21;13.20;99.90
55369;DHT22;41247;49.736;8.752;2023-08-31T21:39:01;13.10;99.90
55369;DHT22;41247;49.736;8.752;2023-08-31T21:42:42;13.10;99.90
55369;DHT22;41247;49.736;8.752;2023-08-31T21:46:28;13.10;99.90
55369;DHT22;41247;49.736;8.752;2023-08-31T21:50:09;13.00;99.90
55369;DHT22;41247;49.736;8.752;2023-08-31T21:53:50;13.00;99.90
55369;DHT22;41247;49.736;8.752;2023-08-31T21:57:30;12.90;99.90
55369;DHT22;41247;49.736;8.752;2023-08-31T22:01:11;12.90;99.90
55369;DHT22;41247;49.736;8.752;2023-08-31T22:04:51;12.90;99.90
55369;DHT22;41247;49.736;8.752;2023-08-31T22:08:32;12.80;99.90
55369;DHT22;41247;49.736;8.752;2023-08-31T22:12:14;12.80;99.90
55369;DHT22;41247;49.736;8.752;2023-08-31T22:15:55;12.80;99.90
55369;DHT22;41247;49.736;8.752;2023-08-31T22:19:36;12.80;99.90
55369;DHT22;41247;49.736;8.752;2023-08-31T22:23:16;12.80;99.90
55369;DHT22;41247;49.736;8.752;2023-08-31T22:26:57;12.80;99.90
55369;DHT22;41247;49.736;8.752;2023-08-31T22:31:07;12.80;99.90
55369;DHT22;41247;49.736;8.752;2023-08-31T23:34:23;12.60;99.90
55369;DHT22;41247;49.736;8.752;2023-08-31T23:38:48;12.60;99.90
55369;DHT22;41247;49.736;8.752;2023-08-31T23:42:33;12.60;99.90
55369;DHT22;41247;49.736;8.752;2023-08-31T23:46:16;12.60;99.90
55369;DHT22;41247;49.736;8.752;2023-08-31T23:49:57;12.60;99.90
55369;DHT22;41247;49.736;8.752;2023-08-31T23:53:57;12.60;99.90
55369;DHT22;41247;49.736;8.752;2023-08-31T23:57:38;12.60;99.90
